sensor_id;sensor_type;location;lat;lon;timestamp;P1;durP1;ratioP1;P2;durP2;ratioP2
51146;SDS011;37207;53.060;18.726;2023-03-01T00:02:04;50.20;;;18.50;;
51146;SDS011;37207;53.060;18.726;2023-03-01T00:04:30;39.80;;;16.70;;
51146;SDS011;37207;53.060;18.726;2023-03-01T00:06:56;42.80;;;17.10;;
51146;SDS011;37207;53.060;18.726;2023-03-01T00:09:22;52.80;;;18.40;;
51146;SDS011;37207;53.060;18.726;2023-03-01T00:11:48;61.30;;;23.70;;
51146;SDS011;37207;53.060;18.726;2023-03-01T00:14:15;79.50;;;32.40;;
51146;SDS011;37207;53.060;18.726;2023-03-01T00:16:44;92.60;;;39.20;;
51146;SDS011;37207;53.060;18.726;2023-03-01T00:19:12;73.00;;;27.30;;
51146;SDS011;37207;53.060;18.726;2023-03-01T00:21:40;59.30;;;21.90;;
51146;SDS011;37207;53.060;18.726;2023-03-01T00:24:06;37.80;;;15.70;;
51146;SDS011;37207;53.060;18.726;2023-03-01T00:26:33;48.20;;;16.30;;
51146;SDS011;37207;53.060;18.726;2023-03-01T00:28:59;47.70;;;16.90;;
51146;SDS011;37207;53.060;18.726;2023-03-01T00:31:26;47.00;;;16.70;;
51146;SDS011;37207;53.060;18.726;2023-03-01T00:33:55;44.70;;;16.20;;
51146;SDS011;37207;53.060;18.726;2023-03-01T00:36:23;37.60;;;15.50;;
51146;SDS011;37207;53.060;18.726;2023-03-01T00:38:54;36.30;;;15.70;;
51146;SDS011;37207;53.060;18.726;2023-03-01T00:41:20;39.60;;;16.20;;
51146;SDS011;37207;53.060;18.726;2023-03-01T00:43:52;52.20;;;17.90;;
51146;SDS011;37207;53.060;18.726;2023-03-01T00:46:22;51.10;;;19.50;;
51146;SDS011;37207;53.060;18.726;2023-03-01T00:48:50;44.80;;;19.00;;
51146;SDS011;37207;53.060;18.726;2023-03-01T00:51:18;42.20;;;18.00;;
51146;SDS011;37207;53.060;18.726;2023-03-01T00:53:46;45.80;;;18.90;;
51146;SDS011;37207;53.060;18.726;2023-03-01T00:56:15;51.40;;;17.00;;
51146;SDS011;37207;53.060;18.726;2023-03-01T00:58:41;38.80;;;16.50;;
51146;SDS011;37207;53.060;18.726;2023-03-01T01:01:08;45.40;;;17.10;;
51146;SDS011;37207;53.060;18.726;2023-03-01T01:03:53;45.70;;;18.40;;
51146;SDS011;37207;53.060;18.726;2023-03-01T01:06:21;40.80;;;17.30;;
51146;SDS011;37207;53.060;18.726;2023-03-01T01:08:59;43.00;;;17.90;;
51146;SDS011;37207;53.060;18.726;2023-03-01T01:11:26;37.90;;;15.90;;
51146;SDS011;37207;53.060;18.726;2023-03-01T01:13:54;39.30;;;17.10;;
51146;SDS011;37207;53.060;18.726;2023-03-01T01:16:22;52.00;;;18.50;;
51146;SDS011;37207;53.060;18.726;2023-03-01T01:18:50;47.40;;;19.00;;
51146;SDS011;37207;53.060;18.726;2023-03-01T01:21:17;47.00;;;18.90;;
51146;SDS011;37207;53.060;18.726;2023-03-01T01:23:46;46.50;;;17.60;;
51146;SDS011;37207;53.060;18.726;2023-03-01T01:26:14;43.00;;;18.30;;
51146;SDS011;37207;53.060;18.726;2023-03-01T01:28:42;33.80;;;15.90;;
51146;SDS011;37207;53.060;18.726;2023-03-01T01:31:09;47.80;;;22.30;;
51146;SDS011;37207;53.060;18.726;2023-03-01T01:33:35;64.20;;;26.60;;
51146;SDS011;37207;53.060;18.726;2023-03-01T01:36:01;62.40;;;31.10;;
51146;SDS011;37207;53.060;18.726;2023-03-01T01:38:27;72.50;;;32.30;;
51146;SDS011;37207;53.060;18.726;2023-03-01T01:40:53;61.60;;;28.70;;
51146;SDS011;37207;53.060;18.726;2023-03-01T01:43:21;64.90;;;29.10;;
51146;SDS011;37207;53.060;18.726;2023-03-01T01:45:55;59.00;;;28.30;;
51146;SDS011;37207;53.060;18.726;2023-03-01T01:48:27;59.40;;;24.70;;
51146;SDS011;37207;53.060;18.726;2023-03-01T01:51:13;65.60;;;29.10;;
51146;SDS011;37207;53.060;18.726;2023-03-01T01:53:44;62.70;;;29.80;;
51146;SDS011;37207;53.060;18.726;2023-03-01T01:56:14;63.20;;;23.90;;
51146;SDS011;37207;53.060;18.726;2023-03-01T01:58:42;62.20;;;24.50;;
51146;SDS011;37207;53.060;18.726;2023-03-01T02:01:09;48.90;;;21.10;;
51146;SDS011;37207;53.060;18.726;2023-03-01T02:03:37;46.70;;;19.50;;
51146;SDS011;37207;53.060;18.726;2023-03-01T02:09:06;48.20;;;18.00;;
51146;SDS011;37207;53.060;18.726;2023-03-01T02:11:36;47.80;;;19.70;;
51146;SDS011;37207;53.060;18.726;2023-03-01T02:14:03;42.00;;;19.90;;
51146;SDS011;37207;53.060;18.726;2023-03-01T02:16:29;49.80;;;20.00;;
51146;SDS011;37207;53.060;18.726;2023-03-01T02:18:56;47.30;;;19.40;;
51146;SDS011;37207;53.060;18.726;2023-03-01T02:21:30;57.40;;;24.20;;
51146;SDS011;37207;53.060;18.726;2023-03-01T02:24:21;48.70;;;17.70;;
51146;SDS011;37207;53.060;18.726;2023-03-01T02:26:54;49.60;;;17.10;;
51146;SDS011;37207;53.060;18.726;2023-03-01T02:29:22;50.60;;;19.90;;
51146;SDS011;37207;53.060;18.726;2023-03-01T02:31:49;48.40;;;18.80;;
51146;SDS011;37207;53.060;18.726;2023-03-01T02:34:21;46.50;;;18.60;;
51146;SDS011;37207;53.060;18.726;2023-03-01T02:36:55;46.80;;;18.60;;
51146;SDS011;37207;53.060;18.726;2023-03-01T02:39:27;44.80;;;17.30;;
51146;SDS011;37207;53.060;18.726;2023-03-01T02:41:58;40.70;;;16.40;;
51146;SDS011;37207;53.060;18.726;2023-03-01T02:44:25;35.30;;;15.80;;
51146;SDS011;37207;53.060;18.726;2023-03-01T02:46:52;57.10;;;21.80;;
51146;SDS011;37207;53.060;18.726;2023-03-01T02:51:52;46.70;;;16.70;;
51146;SDS011;37207;53.060;18.726;2023-03-01T02:57:12;26.70;;;14.00;;
51146;SDS011;37207;53.060;18.726;2023-03-01T02:59:39;31.40;;;14.10;;
51146;SDS011;37207;53.060;18.726;2023-03-01T03:04:46;28.00;;;14.60;;
51146;SDS011;37207;53.060;18.726;2023-03-01T03:07:12;38.30;;;15.70;;
51146;SDS011;37207;53.060;18.726;2023-03-01T03:09:38;39.10;;;17.00;;
51146;SDS011;37207;53.060;18.726;2023-03-01T03:12:04;44.90;;;17.10;;
51146;SDS011;37207;53.060;18.726;2023-03-01T03:14:30;38.00;;;16.40;;
51146;SDS011;37207;53.060;18.726;2023-03-01T03:17:00;43.60;;;17.00;;
51146;SDS011;37207;53.060;18.726;2023-03-01T03:19:26;40.10;;;16.90;;
51146;SDS011;37207;53.060;18.726;2023-03-01T03:21:52;44.60;;;19.60;;
51146;SDS011;37207;53.060;18.726;2023-03-01T03:24:18;39.90;;;19.00;;
51146;SDS011;37207;53.060;18.726;2023-03-01T03:26:44;39.20;;;19.50;;
51146;SDS011;37207;53.060;18.726;2023-03-01T03:29:10;37.00;;;18.00;;
51146;SDS011;37207;53.060;18.726;2023-03-01T03:31:35;48.80;;;18.50;;
51146;SDS011;37207;53.060;18.726;2023-03-01T03:34:01;48.30;;;20.80;;
51146;SDS011;37207;53.060;18.726;2023-03-01T03:36:27;43.80;;;20.20;;
51146;SDS011;37207;53.060;18.726;2023-03-01T03:38:53;47.10;;;19.30;;
51146;SDS011;37207;53.060;18.726;2023-03-01T03:41:19;46.80;;;18.80;;
51146;SDS011;37207;53.060;18.726;2023-03-01T03:43:45;41.00;;;17.40;;
51146;SDS011;37207;53.060;18.726;2023-03-01T03:46:11;43.60;;;19.10;;
51146;SDS011;37207;53.060;18.726;2023-03-01T03:48:39;47.50;;;20.70;;
51146;SDS011;37207;53.060;18.726;2023-03-01T03:51:11;41.00;;;19.40;;
51146;SDS011;37207;53.060;18.726;2023-03-01T03:53:38;48.00;;;19.30;;
51146;SDS011;37207;53.060;18.726;2023-03-01T03:56:04;37.50;;;17.00;;
51146;SDS011;37207;53.060;18.726;2023-03-01T03:58:30;47.00;;;18.50;;
51146;SDS011;37207;53.060;18.726;2023-03-01T04:00:56;41.50;;;17.80;;
51146;SDS011;37207;53.060;18.726;2023-03-01T04:03:23;41.50;;;18.60;;
51146;SDS011;37207;53.060;18.726;2023-03-01T04:05:51;45.60;;;19.40;;
51146;SDS011;37207;53.060;18.726;2023-03-01T04:08:18;43.60;;;18.50;;
51146;SDS011;37207;53.060;18.726;2023-03-01T04:13:15;40.40;;;16.70;;
51146;SDS011;37207;53.060;18.726;2023-03-01T04:15:45;41.10;;;17.90;;
51146;SDS011;37207;53.060;18.726;2023-03-01T04:18:14;43.80;;;17.60;;
51146;SDS011;37207;53.060;18.726;2023-03-01T04:20:41;44.80;;;16.70;;
51146;SDS011;37207;53.060;18.726;2023-03-01T04:23:12;39.40;;;16.50;;
51146;SDS011;37207;53.060;18.726;2023-03-01T04:25:53;48.20;;;19.20;;
51146;SDS011;37207;53.060;18.726;2023-03-01T04:28:25;45.10;;;19.10;;
51146;SDS011;37207;53.060;18.726;2023-03-01T04:30:52;50.10;;;18.80;;
51146;SDS011;37207;53.060;18.726;2023-03-01T04:33:20;38.10;;;16.20;;
51146;SDS011;37207;53.060;18.726;2023-03-01T04:35:46;37.10;;;16.40;;
51146;SDS011;37207;53.060;18.726;2023-03-01T04:38:18;36.70;;;17.30;;
51146;SDS011;37207;53.060;18.726;2023-03-01T04:40:44;45.80;;;17.60;;
51146;SDS011;37207;53.060;18.726;2023-03-01T04:43:11;51.50;;;24.00;;
51146;SDS011;37207;53.060;18.726;2023-03-01T04:45:40;60.40;;;27.50;;
51146;SDS011;37207;53.060;18.726;2023-03-01T04:48:06;64.20;;;29.80;;
51146;SDS011;37207;53.060;18.726;2023-03-01T04:50:32;70.60;;;30.40;;
51146;SDS011;37207;53.060;18.726;2023-03-01T04:52:58;62.60;;;25.20;;
51146;SDS011;37207;53.060;18.726;2023-03-01T04:55:27;52.30;;;23.70;;
51146;SDS011;37207;53.060;18.726;2023-03-01T04:57:54;68.60;;;25.40;;
51146;SDS011;37207;53.060;18.726;2023-03-01T05:00:20;48.80;;;23.80;;
51146;SDS011;37207;53.060;18.726;2023-03-01T05:02:51;51.50;;;24.80;;
51146;SDS011;37207;53.060;18.726;2023-03-01T05:05:31;56.80;;;25.70;;
51146;SDS011;37207;53.060;18.726;2023-03-01T05:08:00;62.70;;;30.80;;
51146;SDS011;37207;53.060;18.726;2023-03-01T05:10:27;57.60;;;23.30;;
51146;SDS011;37207;53.060;18.726;2023-03-01T05:12:56;71.20;;;26.10;;
51146;SDS011;37207;53.060;18.726;2023-03-01T05:15:26;52.10;;;20.00;;
51146;SDS011;37207;53.060;18.726;2023-03-01T05:17:55;99.30;;;28.80;;
51146;SDS011;37207;53.060;18.726;2023-03-01T05:20:24;143.60;;;41.20;;
51146;SDS011;37207;53.060;18.726;2023-03-01T05:22:51;113.10;;;34.90;;
51146;SDS011;37207;53.060;18.726;2023-03-01T05:25:17;67.70;;;27.60;;
51146;SDS011;37207;53.060;18.726;2023-03-01T05:27:43;141.50;;;46.10;;
51146;SDS011;37207;53.060;18.726;2023-03-01T05:30:10;53.90;;;20.60;;
51146;SDS011;37207;53.060;18.726;2023-03-01T05:32:45;31.20;;;16.40;;
51146;SDS011;37207;53.060;18.726;2023-03-01T05:35:14;53.10;;;18.60;;
51146;SDS011;37207;53.060;18.726;2023-03-01T05:37:42;42.70;;;19.10;;
51146;SDS011;37207;53.060;18.726;2023-03-01T05:40:13;58.60;;;22.60;;
51146;SDS011;37207;53.060;18.726;2023-03-01T05:42:45;38.80;;;20.20;;
51146;SDS011;37207;53.060;18.726;2023-03-01T05:45:14;237.30;;;70.00;;
51146;SDS011;37207;53.060;18.726;2023-03-01T05:47:41;74.20;;;27.90;;
51146;SDS011;37207;53.060;18.726;2023-03-01T05:50:11;51.50;;;22.40;;
51146;SDS011;37207;53.060;18.726;2023-03-01T05:52:39;65.60;;;26.10;;
51146;SDS011;37207;53.060;18.726;2023-03-01T05:55:06;112.90;;;41.00;;
51146;SDS011;37207;53.060;18.726;2023-03-01T05:57:32;98.20;;;42.00;;
51146;SDS011;37207;53.060;18.726;2023-03-01T05:59:58;83.20;;;34.20;;
51146;SDS011;37207;53.060;18.726;2023-03-01T06:02:24;75.90;;;26.00;;
51146;SDS011;37207;53.060;18.726;2023-03-01T06:04:50;47.40;;;21.40;;
51146;SDS011;37207;53.060;18.726;2023-03-01T06:07:16;57.20;;;18.20;;
51146;SDS011;37207;53.060;18.726;2023-03-01T06:09:42;84.60;;;25.00;;
51146;SDS011;37207;53.060;18.726;2023-03-01T06:12:07;64.90;;;21.70;;
51146;SDS011;37207;53.060;18.726;2023-03-01T06:14:33;54.80;;;19.30;;
51146;SDS011;37207;53.060;18.726;2023-03-01T06:16:59;42.30;;;17.60;;
51146;SDS011;37207;53.060;18.726;2023-03-01T06:19:25;45.20;;;18.50;;
51146;SDS011;37207;53.060;18.726;2023-03-01T06:21:51;88.10;;;25.90;;
51146;SDS011;37207;53.060;18.726;2023-03-01T06:24:17;82.60;;;25.80;;
51146;SDS011;37207;53.060;18.726;2023-03-01T06:26:42;98.90;;;31.50;;
51146;SDS011;37207;53.060;18.726;2023-03-01T06:29:08;50.90;;;19.90;;
51146;SDS011;37207;53.060;18.726;2023-03-01T06:31:34;52.40;;;19.20;;
51146;SDS011;37207;53.060;18.726;2023-03-01T06:34:00;37.80;;;16.30;;
51146;SDS011;37207;53.060;18.726;2023-03-01T06:36:26;41.50;;;17.10;;
51146;SDS011;37207;53.060;18.726;2023-03-01T06:38:52;48.30;;;17.70;;
51146;SDS011;37207;53.060;18.726;2023-03-01T06:41:17;48.10;;;17.90;;
51146;SDS011;37207;53.060;18.726;2023-03-01T06:43:43;46.80;;;18.40;;
51146;SDS011;37207;53.060;18.726;2023-03-01T06:46:09;63.70;;;21.40;;
51146;SDS011;37207;53.060;18.726;2023-03-01T06:48:35;43.40;;;17.00;;
51146;SDS011;37207;53.060;18.726;2023-03-01T06:51:01;46.90;;;18.20;;
51146;SDS011;37207;53.060;18.726;2023-03-01T06:53:27;66.10;;;22.80;;
51146;SDS011;37207;53.060;18.726;2023-03-01T06:55:57;102.10;;;29.80;;
51146;SDS011;37207;53.060;18.726;2023-03-01T06:58:25;59.20;;;21.10;;
51146;SDS011;37207;53.060;18.726;2023-03-01T07:00:51;104.00;;;50.80;;
51146;SDS011;37207;53.060;18.726;2023-03-01T07:03:17;203.00;;;101.00;;
51146;SDS011;37207;53.060;18.726;2023-03-01T07:05:43;125.70;;;58.30;;
51146;SDS011;37207;53.060;18.726;2023-03-01T07:08:10;114.60;;;56.70;;
51146;SDS011;37207;53.060;18.726;2023-03-01T07:10:36;84.90;;;40.90;;
51146;SDS011;37207;53.060;18.726;2023-03-01T07:13:02;89.50;;;40.90;;
51146;SDS011;37207;53.060;18.726;2023-03-01T07:15:28;126.90;;;61.40;;
51146;SDS011;37207;53.060;18.726;2023-03-01T07:17:54;87.70;;;50.40;;
51146;SDS011;37207;53.060;18.726;2023-03-01T07:20:20;54.80;;;35.90;;
51146;SDS011;37207;53.060;18.726;2023-03-01T07:22:50;53.90;;;29.90;;
51146;SDS011;37207;53.060;18.726;2023-03-01T07:25:17;55.80;;;35.40;;
51146;SDS011;37207;53.060;18.726;2023-03-01T07:27:43;57.40;;;34.10;;
51146;SDS011;37207;53.060;18.726;2023-03-01T07:30:09;59.60;;;36.00;;
51146;SDS011;37207;53.060;18.726;2023-03-01T07:32:35;167.80;;;98.00;;
51146;SDS011;37207;53.060;18.726;2023-03-01T07:35:01;94.10;;;67.80;;
51146;SDS011;37207;53.060;18.726;2023-03-01T07:37:27;36.70;;;28.20;;
51146;SDS011;37207;53.060;18.726;2023-03-01T07:39:53;36.80;;;21.60;;
51146;SDS011;37207;53.060;18.726;2023-03-01T07:42:19;27.20;;;18.00;;
51146;SDS011;37207;53.060;18.726;2023-03-01T07:44:44;31.20;;;18.40;;
51146;SDS011;37207;53.060;18.726;2023-03-01T07:47:10;70.20;;;37.40;;
51146;SDS011;37207;53.060;18.726;2023-03-01T07:49:36;57.80;;;32.60;;
51146;SDS011;37207;53.060;18.726;2023-03-01T07:52:02;57.20;;;32.20;;
51146;SDS011;37207;53.060;18.726;2023-03-01T07:54:28;40.60;;;24.00;;
51146;SDS011;37207;53.060;18.726;2023-03-01T07:56:54;79.60;;;44.30;;
51146;SDS011;37207;53.060;18.726;2023-03-01T07:59:20;65.60;;;30.70;;
51146;SDS011;37207;53.060;18.726;2023-03-01T08:01:46;39.80;;;21.20;;
51146;SDS011;37207;53.060;18.726;2023-03-01T08:04:12;55.40;;;26.50;;
51146;SDS011;37207;53.060;18.726;2023-03-01T08:06:38;46.50;;;21.20;;
51146;SDS011;37207;53.060;18.726;2023-03-01T08:09:03;29.50;;;17.00;;
51146;SDS011;37207;53.060;18.726;2023-03-01T08:11:29;28.90;;;16.20;;
51146;SDS011;37207;53.060;18.726;2023-03-01T08:13:55;65.20;;;31.90;;
51146;SDS011;37207;53.060;18.726;2023-03-01T08:16:23;42.30;;;21.90;;
51146;SDS011;37207;53.060;18.726;2023-03-01T08:18:49;44.50;;;20.60;;
51146;SDS011;37207;53.060;18.726;2023-03-01T08:21:16;28.90;;;16.90;;
51146;SDS011;37207;53.060;18.726;2023-03-01T08:26:10;29.70;;;18.90;;
51146;SDS011;37207;53.060;18.726;2023-03-01T08:28:37;41.40;;;20.40;;
51146;SDS011;37207;53.060;18.726;2023-03-01T08:31:14;42.40;;;22.00;;
51146;SDS011;37207;53.060;18.726;2023-03-01T08:33:45;27.00;;;17.20;;
51146;SDS011;37207;53.060;18.726;2023-03-01T08:36:16;26.90;;;21.10;;
51146;SDS011;37207;53.060;18.726;2023-03-01T08:38:43;28.40;;;18.70;;
51146;SDS011;37207;53.060;18.726;2023-03-01T08:41:09;23.50;;;17.20;;
51146;SDS011;37207;53.060;18.726;2023-03-01T08:43:35;24.80;;;18.20;;
51146;SDS011;37207;53.060;18.726;2023-03-01T08:46:01;33.00;;;20.40;;
51146;SDS011;37207;53.060;18.726;2023-03-01T08:48:27;20.70;;;18.60;;
51146;SDS011;37207;53.060;18.726;2023-03-01T08:50:54;27.80;;;18.80;;
51146;SDS011;37207;53.060;18.726;2023-03-01T08:53:20;23.90;;;18.00;;
51146;SDS011;37207;53.060;18.726;2023-03-01T08:55:46;25.40;;;18.40;;
51146;SDS011;37207;53.060;18.726;2023-03-01T08:58:12;28.40;;;18.10;;
51146;SDS011;37207;53.060;18.726;2023-03-01T09:00:38;26.50;;;18.60;;
51146;SDS011;37207;53.060;18.726;2023-03-01T09:03:05;26.00;;;19.00;;
51146;SDS011;37207;53.060;18.726;2023-03-01T09:05:32;27.70;;;20.40;;
51146;SDS011;37207;53.060;18.726;2023-03-01T09:07:59;28.40;;;20.80;;
51146;SDS011;37207;53.060;18.726;2023-03-01T09:10:25;25.90;;;19.40;;
51146;SDS011;37207;53.060;18.726;2023-03-01T09:12:51;26.90;;;19.80;;
51146;SDS011;37207;53.060;18.726;2023-03-01T09:15:17;25.00;;;18.30;;
51146;SDS011;37207;53.060;18.726;2023-03-01T09:17:43;27.70;;;19.10;;
51146;SDS011;37207;53.060;18.726;2023-03-01T09:20:09;27.10;;;17.20;;
51146;SDS011;37207;53.060;18.726;2023-03-01T09:22:36;22.50;;;16.80;;
51146;SDS011;37207;53.060;18.726;2023-03-01T09:25:02;16.60;;;14.80;;
51146;SDS011;37207;53.060;18.726;2023-03-01T09:27:28;23.30;;;15.60;;
51146;SDS011;37207;53.060;18.726;2023-03-01T09:29:53;22.00;;;16.50;;
51146;SDS011;37207;53.060;18.726;2023-03-01T09:32:21;24.70;;;16.60;;
51146;SDS011;37207;53.060;18.726;2023-03-01T09:34:47;20.50;;;16.20;;
51146;SDS011;37207;53.060;18.726;2023-03-01T09:37:32;26.40;;;17.50;;
51146;SDS011;37207;53.060;18.726;2023-03-01T09:39:59;25.40;;;17.80;;
51146;SDS011;37207;53.060;18.726;2023-03-01T09:42:25;26.40;;;17.30;;
51146;SDS011;37207;53.060;18.726;2023-03-01T09:45:00;24.50;;;19.10;;
51146;SDS011;37207;53.060;18.726;2023-03-01T09:47:30;38.50;;;22.10;;
51146;SDS011;37207;53.060;18.726;2023-03-01T09:50:11;28.80;;;19.70;;
51146;SDS011;37207;53.060;18.726;2023-03-01T09:55:54;22.60;;;15.70;;
51146;SDS011;37207;53.060;18.726;2023-03-01T10:10:29;21.20;;;15.90;;
51146;SDS011;37207;53.060;18.726;2023-03-01T10:13:00;17.70;;;15.40;;
51146;SDS011;37207;53.060;18.726;2023-03-01T10:15:53;15.80;;;14.20;;
51146;SDS011;37207;53.060;18.726;2023-03-01T10:18:25;21.10;;;16.00;;
51146;SDS011;37207;53.060;18.726;2023-03-01T10:20:55;22.00;;;14.80;;
51146;SDS011;37207;53.060;18.726;2023-03-01T10:23:24;21.60;;;15.70;;
51146;SDS011;37207;53.060;18.726;2023-03-01T10:26:03;16.50;;;12.70;;
51146;SDS011;37207;53.060;18.726;2023-03-01T10:31:18;15.30;;;13.80;;
51146;SDS011;37207;53.060;18.726;2023-03-01T10:33:47;15.30;;;12.10;;
51146;SDS011;37207;53.060;18.726;2023-03-01T10:36:17;13.80;;;10.90;;
51146;SDS011;37207;53.060;18.726;2023-03-01T10:41:20;10.50;;;9.60;;
51146;SDS011;37207;53.060;18.726;2023-03-01T10:43:51;24.00;;;15.30;;
51146;SDS011;37207;53.060;18.726;2023-03-01T10:49:34;19.20;;;12.20;;
51146;SDS011;37207;53.060;18.726;2023-03-01T10:51:49;18.50;;;11.90;;
51146;SDS011;37207;53.060;18.726;2023-03-01T10:56:58;14.50;;;11.20;;
51146;SDS011;37207;53.060;18.726;2023-03-01T11:02:01;11.40;;;10.30;;
51146;SDS011;37207;53.060;18.726;2023-03-01T11:04:27;11.40;;;10.30;;
51146;SDS011;37207;53.060;18.726;2023-03-01T11:06:57;8.60;;;7.70;;
51146;SDS011;37207;53.060;18.726;2023-03-01T11:09:25;9.60;;;7.80;;
51146;SDS011;37207;53.060;18.726;2023-03-01T11:11:54;10.30;;;8.80;;
51146;SDS011;37207;53.060;18.726;2023-03-01T11:14:23;10.60;;;9.00;;
51146;SDS011;37207;53.060;18.726;2023-03-01T11:17:01;8.40;;;7.60;;
51146;SDS011;37207;53.060;18.726;2023-03-01T11:19:27;7.00;;;5.30;;
51146;SDS011;37207;53.060;18.726;2023-03-01T11:22:13;6.40;;;5.80;;
51146;SDS011;37207;53.060;18.726;2023-03-01T11:24:49;7.80;;;7.00;;
51146;SDS011;37207;53.060;18.726;2023-03-01T11:27:35;8.40;;;7.70;;
51146;SDS011;37207;53.060;18.726;2023-03-01T11:32:40;9.50;;;7.00;;
51146;SDS011;37207;53.060;18.726;2023-03-01T11:35:21;8.10;;;7.30;;
51146;SDS011;37207;53.060;18.726;2023-03-01T11:40:25;8.20;;;7.50;;
51146;SDS011;37207;53.060;18.726;2023-03-01T11:45:48;8.90;;;7.70;;
51146;SDS011;37207;53.060;18.726;2023-03-01T11:57:00;9.50;;;8.60;;
51146;SDS011;37207;53.060;18.726;2023-03-01T12:02:32;8.50;;;7.90;;
51146;SDS011;37207;53.060;18.726;2023-03-01T12:08:17;10.20;;;9.20;;
51146;SDS011;37207;53.060;18.726;2023-03-01T12:11:15;9.40;;;8.70;;
51146;SDS011;37207;53.060;18.726;2023-03-01T12:14:10;9.90;;;9.00;;
51146;SDS011;37207;53.060;18.726;2023-03-01T12:16:40;10.40;;;7.80;;
51146;SDS011;37207;53.060;18.726;2023-03-01T12:19:44;11.10;;;10.10;;
51146;SDS011;37207;53.060;18.726;2023-03-01T12:25:25;10.00;;;9.00;;
51146;SDS011;37207;53.060;18.726;2023-03-01T12:30:47;11.20;;;10.20;;
51146;SDS011;37207;53.060;18.726;2023-03-01T12:38:49;9.10;;;8.30;;
51146;SDS011;37207;53.060;18.726;2023-03-01T12:41:47;8.40;;;7.70;;
51146;SDS011;37207;53.060;18.726;2023-03-01T12:50:01;8.80;;;7.90;;
51146;SDS011;37207;53.060;18.726;2023-03-01T12:52:52;9.50;;;8.60;;
51146;SDS011;37207;53.060;18.726;2023-03-01T12:55:25;12.10;;;8.90;;
51146;SDS011;37207;53.060;18.726;2023-03-01T13:03:29;11.40;;;10.30;;
51146;SDS011;37207;53.060;18.726;2023-03-01T13:06:14;10.10;;;8.00;;
51146;SDS011;37207;53.060;18.726;2023-03-01T13:08:58;9.60;;;7.20;;
51146;SDS011;37207;53.060;18.726;2023-03-01T13:11:40;8.70;;;7.90;;
51146;SDS011;37207;53.060;18.726;2023-03-01T13:16:45;9.50;;;7.80;;
51146;SDS011;37207;53.060;18.726;2023-03-01T13:19:15;10.10;;;8.00;;
51146;SDS011;37207;53.060;18.726;2023-03-01T13:21:43;7.40;;;6.90;;
51146;SDS011;37207;53.060;18.726;2023-03-01T13:29:51;16.90;;;13.80;;
51146;SDS011;37207;53.060;18.726;2023-03-01T13:32:35;10.60;;;8.40;;
51146;SDS011;37207;53.060;18.726;2023-03-01T13:37:40;9.80;;;8.80;;
51146;SDS011;37207;53.060;18.726;2023-03-01T13:42:53;11.90;;;8.80;;
51146;SDS011;37207;53.060;18.726;2023-03-01T13:45:22;10.20;;;8.90;;
51146;SDS011;37207;53.060;18.726;2023-03-01T13:47:58;9.00;;;8.20;;
51146;SDS011;37207;53.060;18.726;2023-03-01T13:50:29;10.00;;;9.20;;
51146;SDS011;37207;53.060;18.726;2023-03-01T13:53:03;17.00;;;8.20;;
51146;SDS011;37207;53.060;18.726;2023-03-01T13:55:36;9.70;;;8.90;;
51146;SDS011;37207;53.060;18.726;2023-03-01T14:01:06;8.60;;;8.00;;
51146;SDS011;37207;53.060;18.726;2023-03-01T14:03:39;9.00;;;8.20;;
51146;SDS011;37207;53.060;18.726;2023-03-01T14:06:08;10.50;;;9.60;;
51146;SDS011;37207;53.060;18.726;2023-03-01T14:08:38;10.10;;;9.30;;
51146;SDS011;37207;53.060;18.726;2023-03-01T14:16:24;12.20;;;10.90;;
51146;SDS011;37207;53.060;18.726;2023-03-01T14:21:42;12.10;;;10.80;;
51146;SDS011;37207;53.060;18.726;2023-03-01T14:24:18;11.90;;;10.80;;
51146;SDS011;37207;53.060;18.726;2023-03-01T14:29:32;14.10;;;11.00;;
51146;SDS011;37207;53.060;18.726;2023-03-01T14:32:15;12.90;;;11.70;;
51146;SDS011;37207;53.060;18.726;2023-03-01T14:34:45;11.50;;;10.40;;
51146;SDS011;37207;53.060;18.726;2023-03-01T14:39:53;17.90;;;12.20;;
51146;SDS011;37207;53.060;18.726;2023-03-01T14:42:21;11.80;;;10.70;;
51146;SDS011;37207;53.060;18.726;2023-03-01T14:44:49;11.20;;;10.30;;
51146;SDS011;37207;53.060;18.726;2023-03-01T14:47:26;11.10;;;9.90;;
51146;SDS011;37207;53.060;18.726;2023-03-01T14:50:05;10.80;;;9.70;;
51146;SDS011;37207;53.060;18.726;2023-03-01T14:52:36;10.50;;;9.60;;
51146;SDS011;37207;53.060;18.726;2023-03-01T14:55:18;10.10;;;9.30;;
51146;SDS011;37207;53.060;18.726;2023-03-01T14:57:52;9.90;;;9.10;;
51146;SDS011;37207;53.060;18.726;2023-03-01T15:00:20;11.50;;;9.50;;
51146;SDS011;37207;53.060;18.726;2023-03-01T15:02:49;10.00;;;9.10;;
51146;SDS011;37207;53.060;18.726;2023-03-01T15:05:20;9.90;;;9.00;;
51146;SDS011;37207;53.060;18.726;2023-03-01T15:07:54;10.60;;;9.60;;
51146;SDS011;37207;53.060;18.726;2023-03-01T15:10:27;10.60;;;9.60;;
51146;SDS011;37207;53.060;18.726;2023-03-01T15:12:55;10.40;;;9.40;;
51146;SDS011;37207;53.060;18.726;2023-03-01T15:17:54;9.70;;;8.90;;
51146;SDS011;37207;53.060;18.726;2023-03-01T15:20:24;11.40;;;9.90;;
51146;SDS011;37207;53.060;18.726;2023-03-01T15:22:53;12.50;;;10.40;;
51146;SDS011;37207;53.060;18.726;2023-03-01T15:25:25;12.10;;;10.50;;
51146;SDS011;37207;53.060;18.726;2023-03-01T15:27:53;15.00;;;11.20;;
51146;SDS011;37207;53.060;18.726;2023-03-01T15:30:25;11.70;;;10.60;;
51146;SDS011;37207;53.060;18.726;2023-03-01T15:41:26;12.70;;;11.40;;
51146;SDS011;37207;53.060;18.726;2023-03-01T15:43:56;14.60;;;12.10;;
51146;SDS011;37207;53.060;18.726;2023-03-01T15:48:58;27.30;;;12.10;;
51146;SDS011;37207;53.060;18.726;2023-03-01T15:51:31;14.20;;;12.90;;
51146;SDS011;37207;53.060;18.726;2023-03-01T15:54:00;19.70;;;12.70;;
51146;SDS011;37207;53.060;18.726;2023-03-01T15:56:30;14.00;;;12.60;;
51146;SDS011;37207;53.060;18.726;2023-03-01T15:59:00;14.80;;;12.30;;
51146;SDS011;37207;53.060;18.726;2023-03-01T16:01:27;14.20;;;12.70;;
51146;SDS011;37207;53.060;18.726;2023-03-01T16:03:54;15.60;;;12.40;;
51146;SDS011;37207;53.060;18.726;2023-03-01T16:06:20;13.70;;;11.70;;
51146;SDS011;37207;53.060;18.726;2023-03-01T16:08:46;14.40;;;13.00;;
51146;SDS011;37207;53.060;18.726;2023-03-01T16:11:13;53.20;;;24.10;;
51146;SDS011;37207;53.060;18.726;2023-03-01T16:13:42;49.40;;;25.60;;
51146;SDS011;37207;53.060;18.726;2023-03-01T16:16:09;29.90;;;21.00;;
51146;SDS011;37207;53.060;18.726;2023-03-01T16:18:38;30.10;;;20.70;;
51146;SDS011;37207;53.060;18.726;2023-03-01T16:21:04;52.70;;;27.70;;
51146;SDS011;37207;53.060;18.726;2023-03-01T16:23:31;72.80;;;39.10;;
51146;SDS011;37207;53.060;18.726;2023-03-01T16:26:00;89.40;;;45.60;;
51146;SDS011;37207;53.060;18.726;2023-03-01T16:28:26;108.20;;;47.50;;
51146;SDS011;37207;53.060;18.726;2023-03-01T16:30:52;96.30;;;42.60;;
51146;SDS011;37207;53.060;18.726;2023-03-01T16:33:18;144.10;;;53.60;;
51146;SDS011;37207;53.060;18.726;2023-03-01T16:35:44;132.70;;;49.50;;
51146;SDS011;37207;53.060;18.726;2023-03-01T16:38:10;79.70;;;38.40;;